Time;durP1;ratioP1;P1;durP2;ratioP2;P2;SDS_P1;SDS_P2;PMS_P1;PMS_P2;Temp;Humidity;BMP_temperature;BMP_pressure;BME280_temperature;BME280_humidity;BME280_pressure;Samples;Min_cycle;Max_cycle;Signal;HPM_P1;HPM_P2
2021/07/26 00:00:20;;;;;;;5.57;3.70;;;;;;;16.68;94.81;98279.91;5032406;28;20033;-66
2021/07/26 00:02:46;;;;;;;5.30;3.90;;;;;;;16.63;95.65;98289.69;5032201;28;20040;-67
2021/07/26 00:05:12;;;;;;;5.85;4.05;;;;;;;16.60;96.34;98292.94;5029323;28;20041;-68
2021/07/26 00:07:37;;;;;;;6.47;3.75;;;;;;;16.61;96.13;98296.47;5028825;28;20021;-68
2021/07/26 00:10:04;;;;;;;4.82;3.35;;;;;;;16.62;96.12;98298.16;5031469;28;20083;-68
2021/07/26 00:12:30;;;;;;;6.00;3.65;;;;;;;16.50;96.14;98283.78;5032507;28;20030;-68
2021/07/26 00:14:55;;;;;;;5.47;3.70;;;;;;;16.55;95.64;98292.88;5031770;28;20403;-67
2021/07/26 00:17:20;;;;;;;6.20;3.38;;;;;;;16.52;95.69;98281.66;5016276;28;20124;-68
2021/07/26 00:19:45;;;;;;;5.95;3.25;;;;;;;16.63;95.43;98291.59;5031900;28;20036;-68
2021/07/26 00:22:11;;;;;;;6.20;3.53;;;;;;;16.72;94.96;98303.75;5031977;28;20055;-67
2021/07/26 00:24:36;;;;;;;6.53;3.58;;;;;;;16.73;94.40;98308.09;5032474;28;20044;-68
2021/07/26 00:27:01;;;;;;;4.80;3.38;;;;;;;16.73;94.52;98290.91;5030898;28;20029;-68
2021/07/26 00:29:27;;;;;;;5.00;3.38;;;;;;;16.75;94.20;98291.47;5031917;28;20029;-68
2021/07/26 00:31:52;;;;;;;4.82;2.97;;;;;;;16.72;93.96;98298.28;5031753;28;20468;-68
2021/07/26 00:34:23;;;;;;;4.82;3.40;;;;;;;16.75;93.84;98297.75;5013791;28;20025;-66
2021/07/26 00:36:49;;;;;;;4.25;3.10;;;;;;;16.70;93.68;98308.63;5032062;28;20368;-65
2021/07/26 00:39:21;;;;;;;5.05;3.05;;;;;;;16.63;93.64;98305.25;5032063;28;20122;-65
2021/07/26 00:41:47;;;;;;;4.88;3.20;;;;;;;16.56;94.22;98307.38;5027124;28;20030;-66
2021/07/26 00:44:14;;;;;;;4.32;2.90;;;;;;;16.47;94.33;98279.66;5042274;28;20105;-66
2021/07/26 00:46:40;;;;;;;8.63;3.20;;;;;;;16.56;94.48;98310.09;5032013;28;20025;-66
2021/07/26 00:49:10;;;;;;;7.45;3.30;;;;;;;16.51;94.52;98296.38;5013849;28;20621;-65
2021/07/26 00:51:38;;;;;;;4.97;3.15;;;;;;;16.52;94.99;98306.22;4997340;28;20163;-67
2021/07/26 00:54:04;;;;;;;8.13;3.63;;;;;;;16.52;94.99;98300.75;5031023;28;20025;-66
2021/07/26 00:56:30;;;;;;;5.93;3.22;;;;;;;16.48;95.04;98296.88;5031357;28;20108;-67
2021/07/26 00:58:56;;;;;;;4.40;3.20;;;;;;;16.57;94.62;98311.75;5032104;28;20056;-67
2021/07/26 01:01:21;;;;;;;4.57;3.33;;;;;;;16.52;94.94;98298.84;5032038;28;20060;-67
2021/07/26 01:03:46;;;;;;;5.22;3.38;;;;;;;16.59;94.58;98312.31;5029679;28;20057;-67
2021/07/26 01:06:12;;;;;;;4.88;3.05;;;;;;;16.41;94.88;98291.63;5043287;28;20375;-66
2021/07/26 01:08:38;;;;;;;4.40;3.28;;;;;;;16.60;94.49;98312.06;5034863;28;20501;-66
2021/07/26 01:11:05;;;;;;;9.50;3.58;;;;;;;16.74;93.48;98317.97;5032007;28;20029;-67
2021/07/26 01:13:31;;;;;;;6.28;3.35;;;;;;;16.83;92.92;98307.44;5068541;22;20048;-68
2021/07/26 01:15:56;;;;;;;4.05;3.00;;;;;;;16.89;92.29;98311.06;5051836;28;20033;-68
2021/07/26 01:18:30;;;;;;;6.38;2.80;;;;;;;16.84;92.19;98309.09;5051057;28;20024;-68
2021/07/26 01:21:00;;;;;;;6.80;3.65;;;;;;;16.77;92.31;98302.97;5051857;28;20114;-68
2021/07/26 01:23:27;;;;;;;4.18;2.83;;;;;;;16.82;92.30;98320.28;5051096;28;20033;-69
2021/07/26 01:25:53;;;;;;;5.32;3.08;;;;;;;16.89;91.93;98314.59;5050938;28;20033;-68
2021/07/26 01:28:20;;;;;;;6.32;3.60;;;;;;;16.70;92.36;98303.16;5051774;28;20036;-69
2021/07/26 01:30:47;;;;;;;4.90;2.75;;;;;;;16.73;93.27;98316.31;5051676;28;20029;-68
2021/07/26 01:33:14;;;;;;;9.52;3.15;;;;;;;16.73;93.49;98315.50;5032755;28;20019;-69
2021/07/26 01:35:40;;;;;;;5.85;3.35;;;;;;;16.67;93.16;98303.69;5051059;28;20028;-69
2021/07/26 01:38:06;;;;;;;3.80;2.85;;;;;;;16.57;93.71;98307.09;5033460;28;20094;-68
2021/07/26 01:40:37;;;;;;;5.20;3.20;;;;;;;16.60;94.21;98312.06;5033079;28;20025;-68
2021/07/26 01:43:04;;;;;;;6.80;3.80;;;;;;;16.55;94.14;98322.91;5050668;28;20029;-69
2021/07/26 01:45:31;;;;;;;7.15;4.00;;;;;;;16.49;94.42;98323.94;5052241;28;20092;-69
2021/07/26 01:48:04;;;;;;;8.07;3.47;;;;;;;16.42;94.77;98321.38;5054510;28;20513;-68
2021/07/26 01:50:40;;;;;;;4.85;3.47;;;;;;;16.49;94.46;98304.81;5055960;28;20123;-69
2021/07/26 01:53:05;;;;;;;4.35;3.03;;;;;;;16.55;93.19;98302.97;5054246;28;20009;-69
2021/07/26 01:55:31;;;;;;;6.55;3.40;;;;;;;16.56;93.15;98313.66;5054850;28;20514;-68
2021/07/26 01:57:57;;;;;;;5.80;3.30;;;;;;;16.46;93.71;98307.25;5055161;28;20432;-68
2021/07/26 02:00:22;;;;;;;5.00;3.50;;;;;;;16.40;94.42;98309.91;5037478;28;20025;-68
2021/07/26 02:02:48;;;;;;;6.68;3.60;;;;;;;16.35;95.36;98312.56;5054955;28;20108;-68
2021/07/26 02:05:13;;;;;;;4.72;3.10;;;;;;;16.27;95.62;98309.44;5054119;28;20025;-68
2021/07/26 02:07:39;;;;;;;9.35;3.47;;;;;;;16.20;96.40;98305.00;5053347;28;20071;-69
2021/07/26 02:10:04;;;;;;;5.60;3.70;;;;;;;16.24;96.54;98312.66;5036273;28;20087;-68
2021/07/26 02:12:30;;;;;;;8.98;3.75;;;;;;;16.21;96.74;98303.91;5054791;28;20021;-68
2021/07/26 02:14:55;;;;;;;5.00;3.40;;;;;;;16.22;96.75;98310.22;5055559;28;20031;-69
2021/07/26 02:17:20;;;;;;;5.05;3.58;;;;;;;16.20;96.87;98321.38;5054281;28;20029;-68
2021/07/26 02:19:45;;;;;;;8.80;3.60;;;;;;;16.18;96.94;98311.78;5054819;28;20056;-68
2021/07/26 02:22:11;;;;;;;5.93;3.65;;;;;;;16.16;97.17;98303.84;5053664;28;20036;-68
2021/07/26 02:24:36;;;;;;;9.65;3.80;;;;;;;16.25;96.69;98328.81;5053581;28;20024;-68
2021/07/26 02:27:04;;;;;;;7.70;3.45;;;;;;;16.32;96.66;98326.72;5054706;28;20040;-68
2021/07/26 02:29:29;;;;;;;5.63;3.78;;;;;;;16.53;95.54;98332.44;5036308;28;20020;-68
2021/07/26 02:31:54;;;;;;;4.93;3.60;;;;;;;16.50;94.80;98325.56;5054722;28;20032;-68
2021/07/26 02:34:20;;;;;;;5.20;3.08;;;;;;;16.50;94.66;98331.03;5035370;28;20025;-68
2021/07/26 02:36:45;;;;;;;6.72;3.97;;;;;;;16.44;95.45;98330.16;5053956;28;20033;-68
2021/07/26 02:39:10;;;;;;;6.93;3.60;;;;;;;16.30;95.98;98331.59;5053774;28;20040;-68
2021/07/26 02:41:36;;;;;;;7.57;3.67;;;;;;;16.24;96.47;98335.31;5054054;28;20673;-69
2021/07/26 02:44:01;;;;;;;7.72;3.33;;;;;;;16.10;96.69;98336.78;5044092;28;20027;-68
2021/07/26 02:46:26;;;;;;;6.53;2.97;;;;;;;16.05;97.37;98342.97;5054938;28;20021;-69
2021/07/26 02:48:51;;;;;;;4.65;3.25;;;;;;;15.98;98.45;98342.31;5052184;28;20051;-69
2021/07/26 02:51:17;;;;;;;8.70;3.58;;;;;;;15.86;98.65;98333.41;5054348;28;20035;-68
2021/07/26 02:53:42;;;;;;;6.80;4.00;;;;;;;15.89;98.69;98347.38;5053140;28;20546;-68
2021/07/26 02:56:09;;;;;;;7.85;3.67;;;;;;;15.89;99.00;98344.66;5054171;28;20029;-68
2021/07/26 02:58:35;;;;;;;9.75;3.83;;;;;;;15.89;99.06;98341.09;5034364;28;20024;-69
2021/07/26 03:01:00;;;;;;;12.65;4.25;;;;;;;16.06;97.74;98344.66;5053918;28;20021;-68
2021/07/26 03:03:25;;;;;;;5.88;3.88;;;;;;;16.20;96.59;98340.47;5053487;28;20025;-68
2021/07/26 03:05:51;;;;;;;7.45;3.55;;;;;;;16.26;96.42;98341.38;5053927;28;20028;-68
2021/07/26 03:08:16;;;;;;;7.10;3.47;;;;;;;16.26;95.51;98354.19;5051475;28;20127;-68
2021/07/26 03:10:41;;;;;;;6.07;3.88;;;;;;;16.34;95.60;98349.13;5050350;28;20025;-68
2021/07/26 03:13:07;;;;;;;8.43;3.83;;;;;;;16.30;95.52;98352.63;5031564;28;20013;-69
2021/07/26 03:15:35;;;;;;;9.18;3.92;;;;;;;16.32;95.48;98353.19;5053867;28;20035;-68
2021/07/26 03:18:00;;;;;;;11.40;3.72;;;;;;;16.32;95.28;98362.22;5054052;28;20029;-68
2021/07/26 03:20:25;;;;;;;4.95;3.40;;;;;;;16.24;96.28;98364.53;5054341;28;20021;-68
2021/07/26 03:23:00;;;;;;;6.40;3.67;;;;;;;16.20;96.36;98366.94;5052089;28;20029;-68
2021/07/26 03:25:27;;;;;;;5.68;3.42;;;;;;;16.17;96.65;98362.00;5052192;28;20427;-68
2021/07/26 03:27:52;;;;;;;5.18;3.30;;;;;;;16.12;96.63;98367.38;5034403;28;20029;-69
2021/07/26 03:30:18;;;;;;;9.43;3.67;;;;;;;16.24;96.62;98373.53;5052837;28;20033;-68
2021/07/26 03:32:44;;;;;;;5.65;3.97;;;;;;;16.25;95.69;98380.66;5053081;28;20025;-68
2021/07/26 03:35:11;;;;;;;6.00;3.40;;;;;;;16.25;95.90;98385.31;5053927;28;20029;-69
2021/07/26 03:37:36;;;;;;;6.10;3.53;;;;;;;16.24;96.25;98376.28;5025499;28;20025;-68
2021/07/26 03:40:03;;;;;;;6.05;3.78;;;;;;;16.23;96.45;98382.00;5053553;28;20028;-69
2021/07/26 03:42:28;;;;;;;5.85;3.80;;;;;;;16.11;96.35;98366.56;5052660;28;20040;-68
2021/07/26 03:44:56;;;;;;;4.88;3.35;;;;;;;16.20;96.21;98381.41;5052385;28;20549;-68
2021/07/26 03:47:22;;;;;;;4.22;3.20;;;;;;;16.22;96.33;98381.19;5053941;28;20017;-68
2021/07/26 03:49:48;;;;;;;7.25;3.20;;;;;;;16.38;95.62;98371.31;5053637;28;20024;-69
2021/07/26 03:52:13;;;;;;;4.38;3.47;;;;;;;16.48;94.39;98378.78;5053510;28;20032;-70
2021/07/26 03:54:38;;;;;;;5.45;3.20;;;;;;;16.52;94.00;98380.78;5051577;28;20028;-71
2021/07/26 03:57:04;;;;;;;7.18;3.80;;;;;;;16.55;93.31;98379.44;5045896;28;20033;-73
2021/07/26 03:59:29;;;;;;;6.85;3.95;;;;;;;16.48;94.35;98378.78;5050814;28;20032;-74
2021/07/26 04:01:55;;;;;;;8.18;4.47;;;;;;;16.41;94.69;98373.53;5048822;28;20032;-73
2021/07/26 04:04:21;;;;;;;9.45;3.90;;;;;;;16.47;94.98;98375.25;5046367;28;20024;-76
2021/07/26 04:06:51;;;;;;;9.25;4.65;;;;;;;16.56;93.91;98386.56;5035387;28;20021;-73
2021/07/26 04:09:17;;;;;;;7.68;4.13;;;;;;;16.60;93.40;98390.44;5052332;28;20109;-70
2021/07/26 04:11:43;;;;;;;7.72;4.05;;;;;;;16.63;92.43;98381.72;5052789;28;20024;-78
2021/07/26 04:14:10;;;;;;;8.10;4.30;;;;;;;16.79;91.92;98389.09;5034246;28;20397;-71
2021/07/26 04:16:35;;;;;;;7.65;3.88;;;;;;;16.74;92.45;98371.75;5051779;28;20487;-71
2021/07/26 04:19:02;;;;;;;6.35;4.00;;;;;;;16.69;93.04;98368.97;5051179;28;20021;-76
2021/07/26 04:21:32;;;;;;;6.32;3.72;;;;;;;16.78;93.37;98368.31;5053638;28;20035;-74
2021/07/26 04:23:58;;;;;;;;;;;;;;;16.78;93.61;98370.22;5053896;28;20021;-73
2021/07/26 04:26:23;;;;;;;7.00;3.92;;;;;;;16.78;93.75;98371.03;5036050;28;19913;-74
2021/07/26 04:28:49;;;;;;;5.53;3.72;;;;;;;16.80;93.06;98368.88;5053010;28;20100;-74
2021/07/26 04:31:14;;;;;;;5.63;3.83;;;;;;;16.89;93.15;98374.72;5053255;28;20064;-75
2021/07/26 04:33:40;;;;;;;7.30;4.13;;;;;;;16.96;92.10;98366.34;5051954;28;20039;-71
2021/07/26 04:36:05;;;;;;;8.43;4.20;;;;;;;17.01;91.84;98367.22;5055887;28;20029;-71
2021/07/26 04:38:31;;;;;;;6.53;3.42;;;;;;;17.11;91.66;98374.72;5036441;28;20055;-69
2021/07/26 04:40:57;;;;;;;9.90;3.90;;;;;;;17.13;91.89;98380.72;5034813;28;20035;-69
2021/07/26 04:43:22;;;;;;;7.10;3.35;;;;;;;17.06;91.69;98361.81;5051999;28;20025;-69
2021/07/26 04:45:48;;;;;;;11.40;4.30;;;;;;;17.00;92.13;98381.13;5053630;28;20039;-70
2021/07/26 04:48:13;;;;;;;8.00;3.63;;;;;;;16.92;91.76;98373.38;5051909;28;20111;-70
2021/07/26 04:50:38;;;;;;;8.80;3.72;;;;;;;17.01;91.37;98378.16;5034610;28;20032;-72
2021/07/26 04:53:04;;;;;;;5.00;3.20;;;;;;;17.07;91.58;98371.66;5051109;28;20021;-71
2021/07/26 04:55:29;;;;;;;8.73;3.60;;;;;;;17.10;91.30;98386.72;5051849;28;20112;-72
2021/07/26 04:57:54;;;;;;;5.68;3.38;;;;;;;17.16;91.14;98376.66;5052226;28;20036;-71
2021/07/26 05:00:20;;;;;;;5.07;3.20;;;;;;;17.22;90.40;98378.38;5050202;28;20580;-72
2021/07/26 05:02:45;;;;;;;5.95;3.40;;;;;;;17.37;89.60;98366.75;5052734;28;20119;-72
2021/07/26 05:05:11;;;;;;;5.85;3.10;;;;;;;17.53;89.01;98371.31;5051113;28;20028;-71
2021/07/26 05:07:36;;;;;;;5.97;3.53;;;;;;;17.66;88.78;98379.09;5051805;28;20025;-71
2021/07/26 05:10:02;;;;;;;9.60;3.42;;;;;;;17.71;88.91;98386.50;5044231;28;20027;-71
2021/07/26 05:12:28;;;;;;;4.20;3.15;;;;;;;17.68;89.01;98385.13;5039265;28;20039;-71
2021/07/26 05:14:53;;;;;;;5.55;3.30;;;;;;;17.63;88.22;98385.09;5043723;28;20018;-71
2021/07/26 05:17:28;;;;;;;5.10;3.20;;;;;;;17.64;88.16;98385.91;5051011;28;20478;-71
2021/07/26 05:19:54;;;;;;;4.45;3.00;;;;;;;17.59;88.39;98381.22;5051532;28;20024;-70
2021/07/26 05:22:20;;;;;;;4.65;3.50;;;;;;;17.64;88.21;98386.72;5052465;28;20040;-71
2021/07/26 05:24:46;;;;;;;4.88;3.30;;;;;;;17.61;88.29;98391.91;5052130;28;20394;-76
2021/07/26 05:27:12;;;;;;;5.38;3.47;;;;;;;17.58;89.00;98390.50;5052099;28;20418;-76
2021/07/26 05:29:38;;;;;;;10.40;3.95;;;;;;;17.63;89.09;98396.03;5051359;28;20478;-77
2021/07/26 05:32:04;;;;;;;7.35;3.70;;;;;;;17.68;88.29;98401.56;5051610;28;20025;-69
2021/07/26 05:34:30;;;;;;;5.82;3.40;;;;;;;17.82;88.11;98403.91;5049481;28;20371;-72
2021/07/26 05:36:55;;;;;;;7.88;4.13;;;;;;;17.87;86.88;98387.53;5050848;28;20032;-74
2021/07/26 05:39:24;;;;;;;6.15;3.28;;;;;;;17.99;86.67;98381.84;5049451;28;20036;-75
2021/07/26 05:41:51;;;;;;;5.90;2.95;;;;;;;18.09;85.91;98401.09;5033077;28;20082;-73
2021/07/26 05:44:16;;;;;;;4.30;2.97;;;;;;;18.14;84.85;98406.63;5050465;28;20044;-69
2021/07/26 05:46:42;;;;;;;6.38;3.17;;;;;;;18.38;84.32;98401.56;5050595;28;20029;-69
2021/07/26 05:49:07;;;;;;;4.82;3.30;;;;;;;18.54;83.38;98392.34;5052589;28;20493;-69
2021/07/26 05:51:32;;;;;;;5.57;3.65;;;;;;;18.68;82.66;98405.56;5049733;28;20020;-74
2021/07/26 05:53:58;;;;;;;6.90;2.97;;;;;;;18.72;82.60;98403.97;5028554;28;20039;-69
2021/07/26 05:56:23;;;;;;;7.32;3.67;;;;;;;18.72;82.78;98398.47;5030043;28;20041;-73
2021/07/26 05:58:49;;;;;;;6.25;3.72;;;;;;;18.91;83.24;98401.63;5032317;28;20083;-69
2021/07/26 06:01:36;;;;;;;5.55;3.00;;;;;;;19.20;81.94;98402.00;5051748;28;20504;-70
2021/07/26 06:04:03;;;;;;;5.10;3.30;;;;;;;19.64;80.69;98396.88;5049420;28;20456;-74
2021/07/26 06:06:32;;;;;;;9.30;3.15;;;;;;;19.92;79.02;98384.59;5051730;28;20025;-79
2021/07/26 06:08:58;;;;;;;6.38;3.60;;;;;;;20.26;78.14;98386.75;5051824;28;20081;-77
2021/07/26 06:11:23;;;;;;;5.45;3.05;;;;;;;20.29;74.79;98375.22;5033709;28;20116;-75
2021/07/26 06:13:49;;;;;;;4.90;3.17;;;;;;;20.35;73.75;98378.78;5037032;28;20034;-75
2021/07/26 06:16:16;;;;;;;9.20;2.97;;;;;;;20.75;72.91;98386.13;5045412;28;20033;-74
2021/07/26 06:18:41;;;;;;;7.25;3.10;;;;;;;20.94;71.71;98386.34;5051104;28;20040;-75
2021/07/26 06:21:07;;;;;;;4.10;3.10;;;;;;;21.11;70.98;98383.22;5049792;28;20025;-75
2021/07/26 06:23:34;;;;;;;3.95;2.50;;;;;;;21.40;70.71;98386.13;5040854;28;20033;-76
2021/07/26 06:25:59;;;;;;;5.57;2.90;;;;;;;21.58;69.45;98378.31;5049699;28;20029;-75
2021/07/26 06:28:24;;;;;;;6.10;3.00;;;;;;;22.10;69.37;98393.34;5048033;28;20029;-74
2021/07/26 06:30:50;;;;;;;5.10;2.85;;;;;;;22.38;66.82;98396.44;5042918;28;20037;-74
2021/07/26 06:33:15;;;;;;;4.90;2.80;;;;;;;22.00;68.19;98385.16;5028826;28;20099;-75
2021/07/26 06:35:40;;;;;;;5.05;2.85;;;;;;;21.91;68.35;98387.72;5032857;28;20120;-74
2021/07/26 06:38:06;;;;;;;7.80;2.85;;;;;;;22.14;66.06;98379.78;5053394;28;20409;-75
2021/07/26 06:40:33;;;;;;;11.00;2.85;;;;;;;22.59;65.41;98380.50;5049764;28;20026;-74
2021/07/26 06:42:58;;;;;;;6.07;2.45;;;;;;;22.90;63.54;98392.00;5044892;28;20029;-74
2021/07/26 06:45:25;;;;;;;3.35;2.50;;;;;;;24.02;58.20;98389.63;5037512;28;20036;-74
2021/07/26 06:47:51;;;;;;;3.92;2.72;;;;;;;23.93;59.02;98386.75;5055001;28;20078;-74
2021/07/26 06:50:16;;;;;;;3.30;2.33;;;;;;;25.03;55.45;98390.84;5036472;28;20021;-73
2021/07/26 06:52:41;;;;;;;5.55;2.42;;;;;;;26.26;52.36;98386.13;5052759;28;20036;-74
2021/07/26 06:55:07;;;;;;;5.53;2.83;;;;;;;28.53;47.14;98396.59;5053090;28;20222;-74
2021/07/26 06:57:32;;;;;;;6.80;2.92;;;;;;;29.02;45.14;98390.63;5048616;28;20469;-75
2021/07/26 06:59:57;;;;;;;5.88;2.60;;;;;;;28.95;45.74;98396.75;5049033;28;20024;-75
2021/07/26 07:02:23;;;;;;;5.40;2.45;;;;;;;29.42;44.59;98399.47;5048961;28;20032;-70
2021/07/26 07:04:48;;;;;;;7.10;2.88;;;;;;;30.12;43.25;98390.56;5044606;28;20479;-70
2021/07/26 07:07:13;;;;;;;5.25;2.50;;;;;;;29.92;43.74;98398.63;5047217;28;20029;-74
2021/07/26 07:09:39;;;;;;;4.75;2.53;;;;;;;29.22;44.57;98392.69;5053996;28;20112;-75
2021/07/26 07:12:04;;;;;;;3.10;2.53;;;;;;;27.70;47.62;98363.44;5114211;22;20025;-73
2021/07/26 07:14:29;;;;;;;6.00;2.70;;;;;;;27.39;48.66;98396.91;5023920;28;20033;-71
2021/07/26 07:16:55;;;;;;;6.30;2.75;;;;;;;27.66;48.34;98402.16;5034341;28;20029;-72
2021/07/26 07:19:20;;;;;;;5.10;2.50;;;;;;;29.36;44.94;98400.78;5044620;28;20420;-70
2021/07/26 07:21:45;;;;;;;4.25;2.35;;;;;;;31.01;41.77;98401.28;5036253;28;20530;-75
2021/07/26 07:24:11;;;;;;;4.38;2.60;;;;;;;32.12;39.10;98392.72;5044570;28;20017;-73
2021/07/26 07:26:36;;;;;;;5.40;2.70;;;;;;;31.77;39.77;98393.28;5042948;28;20046;-69
2021/07/26 07:29:03;;;;;;;4.90;2.80;;;;;;;31.23;40.18;98412.00;5041929;28;20424;-69
2021/07/26 07:31:32;;;;;;;3.33;2.38;;;;;;;30.39;42.12;98413.47;5034203;28;20029;-68
2021/07/26 07:33:58;;;;;;;7.78;2.95;;;;;;;30.16;43.04;98408.25;5045373;28;20078;-68
2021/07/26 07:36:24;;;;;;;7.63;2.38;;;;;;;30.73;41.24;98399.13;5052104;28;20389;-73
2021/07/26 07:38:50;;;;;;;4.72;2.40;;;;;;;31.46;39.88;98411.53;5021726;28;20026;-68
2021/07/26 07:41:17;;;;;;;7.60;2.38;;;;;;;32.97;37.92;98411.84;5033076;28;20079;-68
2021/07/26 07:43:43;;;;;;;5.60;2.60;;;;;;;33.59;36.96;98414.19;5036624;28;20359;-68
2021/07/26 07:46:08;;;;;;;4.82;2.45;;;;;;;33.92;36.17;98402.47;5023389;28;20036;-76
2021/07/26 07:48:34;;;;;;;3.13;2.20;;;;;;;33.95;35.27;98412.16;5026984;28;20024;-75
2021/07/26 07:51:00;;;;;;;4.72;2.35;;;;;;;34.95;34.73;98407.69;5043419;28;20025;-75
2021/07/26 07:53:26;;;;;;;4.70;2.33;;;;;;;35.89;31.98;98403.13;5016692;28;20026;-73
2021/07/26 07:55:52;;;;;;;5.78;2.13;;;;;;;35.40;31.93;98397.56;5043056;28;20074;-73
2021/07/26 07:58:18;;;;;;;3.38;1.65;;;;;;;35.10;30.39;98410.38;5051149;28;20223;-72
2021/07/26 08:00:43;;;;;;;3.05;2.00;;;;;;;34.96;31.81;98390.44;5053871;28;20028;-73
2021/07/26 08:03:09;;;;;;;2.95;1.73;;;;;;;35.94;31.99;98399.16;5053181;28;20021;-74
2021/07/26 08:05:34;;;;;;;4.20;1.85;;;;;;;36.41;29.44;98400.56;5048818;28;20025;-75
2021/07/26 08:08:00;;;;;;;2.20;1.83;;;;;;;36.27;30.13;98408.88;5033473;28;20025;-75
2021/07/26 08:10:25;;;;;;;2.78;2.20;;;;;;;34.38;31.85;98427.13;5034026;28;20487;-74
2021/07/26 08:12:51;;;;;;;2.80;1.60;;;;;;;36.29;29.71;98404.47;5036067;28;20021;-74
2021/07/26 08:15:18;;;;;;;3.17;1.73;;;;;;;37.56;28.16;98390.34;5033231;28;20036;-75
2021/07/26 08:17:45;;;;;;;2.60;2.00;;;;;;;36.40;29.40;98407.41;5028901;28;20030;-74
2021/07/26 08:20:14;;;;;;;3.03;1.90;;;;;;;37.23;27.48;98406.19;5028082;28;20120;-74
2021/07/26 08:22:40;;;;;;;4.57;1.85;;;;;;;36.88;28.27;98406.69;5045106;28;20080;-74
2021/07/26 08:25:07;;;;;;;3.95;2.03;;;;;;;35.90;30.12;98404.78;5051648;28;20025;-75
2021/07/26 08:27:55;;;;;;;2.40;1.70;;;;;;;35.61;30.20;98403.56;5035233;28;20025;-74
2021/07/26 08:30:23;;;;;;;3.72;1.90;;;;;;;35.31;30.89;98409.09;5052774;28;20029;-73
2021/07/26 08:32:49;;;;;;;3.55;1.80;;;;;;;34.64;31.25;98403.97;5029026;28;20560;-75
2021/07/26 08:35:14;;;;;;;3.97;2.17;;;;;;;35.01;31.34;98411.81;5039808;28;20068;-75
2021/07/26 08:37:40;;;;;;;3.38;1.92;;;;;;;35.16;31.46;98408.06;5043037;28;20025;-74
2021/07/26 08:40:05;;;;;;;2.40;1.90;;;;;;;35.83;30.24;98392.59;5034457;28;20025;-75
2021/07/26 08:42:31;;;;;;;2.97;1.90;;;;;;;35.98;30.03;98406.47;5041737;28;20390;-75
2021/07/26 08:44:57;;;;;;;2.75;1.70;;;;;;;36.72;29.41;98416.22;5026539;28;20032;-74
2021/07/26 08:47:24;;;;;;;2.08;1.70;;;;;;;36.20;29.57;98413.19;5028218;28;20033;-74
2021/07/26 08:49:52;;;;;;;2.67;1.80;;;;;;;34.98;30.85;98419.00;5031813;28;20017;-73
2021/07/26 08:52:22;;;;;;;3.30;1.65;;;;;;;35.34;30.63;98405.53;5049415;28;20075;-71
2021/07/26 08:54:49;;;;;;;4.18;2.00;;;;;;;36.25;28.56;98414.06;5042537;28;20021;-72
2021/07/26 08:57:15;;;;;;;4.53;1.90;;;;;;;34.66;31.73;98426.84;5057409;28;20019;-72
2021/07/26 08:59:41;;;;;;;3.95;2.15;;;;;;;34.58;31.57;98416.66;5070344;28;20053;-72
2021/07/26 09:02:06;;;;;;;3.17;1.95;;;;;;;34.71;32.47;98417.31;5038676;28;20030;-71
2021/07/26 09:04:31;;;;;;;5.32;1.92;;;;;;;34.11;33.23;98424.16;5043040;28;20029;-70
2021/07/26 09:06:57;;;;;;;6.10;4.22;;;;;;;35.53;31.12;98401.81;5028098;28;20415;-73
2021/07/26 09:09:43;;;;;;;6.95;3.10;;;;;;;36.18;30.38;98409.16;5043767;28;20036;-73
2021/07/26 09:12:09;;;;;;;4.50;3.28;;;;;;;35.71;30.61;98402.91;5033923;28;20009;-73
2021/07/26 09:14:40;;;;;;;3.92;2.00;;;;;;;35.22;31.20;98409.38;5049801;28;20047;-73
2021/07/26 09:17:09;;;;;;;4.22;2.38;;;;;;;33.73;33.26;98416.50;5044193;28;20017;-74
2021/07/26 09:20:00;;;;;;;4.60;2.28;;;;;;;33.33;33.91;98423.97;5024149;28;20046;-72
2021/07/26 09:22:30;;;;;;;4.30;2.08;;;;;;;34.22;33.15;98415.97;5027380;28;20124;-74
2021/07/26 09:25:11;;;;;;;4.57;2.08;;;;;;;36.26;30.31;98413.66;5038749;28;20025;-71
2021/07/26 09:27:36;;;;;;;5.68;2.00;;;;;;;37.63;27.64;98402.47;5041897;28;20025;-72
2021/07/26 09:30:16;;;;;;;2.53;2.00;;;;;;;36.02;29.90;98405.72;5027528;28;20047;-71
2021/07/26 09:32:42;;;;;;;3.17;1.80;;;;;;;36.50;29.13;98397.41;5035959;28;20045;-71
2021/07/26 09:35:08;;;;;;;3.97;2.05;;;;;;;37.12;27.69;98392.00;5036050;28;20073;-71
2021/07/26 09:37:35;;;;;;;3.17;1.95;;;;;;;36.86;27.93;98398.63;5042575;28;20044;-72
2021/07/26 09:40:23;;;;;;;2.42;1.90;;;;;;;36.09;28.67;98383.31;5048109;28;20025;-72
2021/07/26 09:42:49;;;;;;;3.20;1.90;;;;;;;35.97;29.23;98390.78;5040958;28;20461;-74
2021/07/26 09:45:22;;;;;;;2.67;1.95;;;;;;;37.15;27.37;98402.50;5045695;28;20105;-71
2021/07/26 09:48:03;;;;;;;3.22;1.88;;;;;;;36.34;28.36;98395.69;5024192;28;20025;-69
2021/07/26 09:50:33;;;;;;;4.03;2.00;;;;;;;36.46;27.87;98380.50;5033991;28;20044;-70
2021/07/26 09:53:06;;;;;;;4.18;1.70;;;;;;;36.38;27.96;98395.72;5042595;28;20045;-70
2021/07/26 09:55:32;;;;;;;3.90;1.88;;;;;;;37.64;27.33;98395.63;5039140;28;20029;-70
2021/07/26 09:58:00;;;;;;;2.58;1.90;;;;;;;38.39;25.21;98381.03;5047561;28;20559;-70
2021/07/26 10:00:26;;;;;;;2.85;1.70;;;;;;;38.21;26.14;98386.63;5027983;28;20021;-70
2021/07/26 10:02:52;;;;;;;4.70;2.00;;;;;;;37.78;26.25;98392.06;5039590;28;20092;-70
2021/07/26 10:05:19;;;;;;;2.78;1.83;;;;;;;36.50;27.37;98381.34;5038872;28;20037;-69
2021/07/26 10:07:45;;;;;;;2.55;1.95;;;;;;;33.42;30.54;98367.69;5039110;28;20033;-74
2021/07/26 10:10:11;;;;;;;3.08;1.90;;;;;;;35.88;27.81;98381.81;5035087;28;20489;-66
2021/07/26 10:12:38;;;;;;;3.25;1.60;;;;;;;36.65;27.72;98356.94;5038759;28;20029;-67
2021/07/26 10:15:04;;;;;;;1.88;1.40;;;;;;;38.72;25.36;98381.91;5042391;28;20028;-67
2021/07/26 10:17:30;;;;;;;2.58;1.80;;;;;;;38.50;24.73;98381.09;5039221;28;20029;-67
2021/07/26 10:19:55;;;;;;;1.92;1.67;;;;;;;37.21;26.53;98372.75;5045259;28;20037;-67
2021/07/26 10:22:25;;;;;;;2.80;1.80;;;;;;;38.02;25.09;98368.00;5035178;28;20284;-67
2021/07/26 10:24:59;;;;;;;2.63;1.60;;;;;;;38.24;25.99;98368.06;5050943;28;20064;-67
2021/07/26 10:27:31;;;;;;;2.60;1.80;;;;;;;37.52;26.46;98367.75;5052042;28;20037;-66
2021/07/26 10:29:58;;;;;;;2.72;1.80;;;;;;;36.47;26.43;98370.03;5035798;28;20435;-66
2021/07/26 10:32:29;;;;;;;5.22;1.98;;;;;;;35.78;28.70;98357.94;5036451;28;20387;-66
2021/07/26 10:35:00;;;;;;;3.05;1.60;;;;;;;37.10;26.88;98356.94;5035979;28;20021;-67
2021/07/26 10:37:41;;;;;;;2.25;1.80;;;;;;;36.24;27.76;98359.75;5035389;28;20113;-66
2021/07/26 10:40:22;;;;;;;2.78;1.70;;;;;;;36.32;28.80;98353.00;5031990;28;20036;-66
2021/07/26 10:42:52;;;;;;;2.97;1.80;;;;;;;38.06;26.78;98353.88;5018533;28;20078;-66
2021/07/26 10:45:33;;;;;;;2.58;1.50;;;;;;;37.02;25.98;98362.50;5050569;28;20041;-66
2021/07/26 10:48:27;;;;;;;4.55;1.52;;;;;;;36.28;27.48;98342.88;5015310;28;20056;-67
2021/07/26 10:50:54;;;;;;;2.78;1.83;;;;;;;34.66;30.54;98353.78;5031543;28;20029;-67
2021/07/26 10:53:34;;;;;;;2.63;1.90;;;;;;;34.50;30.96;98351.06;5045837;28;20047;-67
2021/07/26 10:56:06;;;;;;;2.05;1.60;;;;;;;33.06;32.85;98360.44;5031187;28;20036;-67
2021/07/26 10:58:40;;;;;;;2.30;1.70;;;;;;;33.15;31.52;98355.47;5039085;28;20021;-67
2021/07/26 11:01:26;;;;;;;3.05;1.60;;;;;;;33.48;31.14;98342.97;5035982;28;20032;-67
2021/07/26 11:03:51;;;;;;;4.35;1.77;;;;;;;34.86;29.46;98343.28;5033146;28;20486;-68
2021/07/26 11:06:48;;;;;;;2.83;1.73;;;;;;;34.25;29.39;98343.00;5031198;28;20039;-67
2021/07/26 11:09:40;;;;;;;4.15;1.83;;;;;;;33.94;30.45;98340.38;4992897;28;20076;-67
2021/07/26 11:12:06;;;;;;;2.55;1.70;;;;;;;36.33;27.30;98325.63;5033920;28;20406;-66
2021/07/26 11:14:32;;;;;;;4.47;1.85;;;;;;;38.42;24.78;98318.03;5032175;28;20030;-66
2021/07/26 11:17:02;;;;;;;5.05;1.80;;;;;;;37.46;25.22;98310.00;5038022;28;20029;-67
2021/07/26 11:19:38;;;;;;;3.60;1.83;;;;;;;38.57;24.22;98307.59;5029789;28;20048;-66
2021/07/26 11:22:14;;;;;;;2.75;1.75;;;;;;;38.77;23.72;98310.81;5030586;28;20025;-66
2021/07/26 11:24:39;;;;;;;5.00;1.65;;;;;;;37.78;24.74;98317.84;5032557;28;20083;-66
2021/07/26 11:27:05;;;;;;;1.88;1.52;;;;;;;37.30;25.99;98313.16;5040102;28;20483;-67
2021/07/26 11:29:31;;;;;;;2.15;1.65;;;;;;;36.66;26.71;98309.88;5033468;28;20552;-67
2021/07/26 11:31:57;;;;;;;2.63;1.70;;;;;;;37.48;25.51;98305.59;5030805;28;20179;-66
2021/07/26 11:34:27;;;;;;;2.83;1.48;;;;;;;39.06;24.69;98299.50;5017095;28;20021;-67